sensor_id;sensor_type;location;lat;lon;timestamp;temperature;humidity
19908;DHT22;10116;53.112;7.356;2022-07-04T00:02:20;29.10;99.90
19908;DHT22;10116;53.112;7.356;2022-07-04T00:04:46;29.10;99.90
19908;DHT22;10116;53.112;7.356;2022-07-04T00:07:11;29.10;99.90
19908;DHT22;10116;53.112;7.356;2022-07-04T00:09:37;29.10;99.90
19908;DHT22;10116;53.112;7.356;2022-07-04T00:12:03;29.10;99.90
19908;DHT22;10116;53.112;7.356;2022-07-04T00:14:28;29.00;99.90
19908;DHT22;10116;53.112;7.356;2022-07-04T00:16:54;29.10;99.90
19908;DHT22;10116;53.112;7.356;2022-07-04T00:19:19;29.00;99.90
19908;DHT22;10116;53.112;7.356;2022-07-04T00:21:45;29.10;99.90
19908;DHT22;10116;53.112;7.356;2022-07-04T00:24:11;29.00;99.90
19908;DHT22;10116;53.112;7.356;2022-07-04T00:26:36;29.00;99.90
19908;DHT22;10116;53.112;7.356;2022-07-04T00:29:02;29.00;99.90
19908;DHT22;10116;53.112;7.356;2022-07-04T00:31:28;29.00;99.90
19908;DHT22;10116;53.112;7.356;2022-07-04T00:33:53;29.00;99.90
19908;DHT22;10116;53.112;7.356;2022-07-04T00:36:19;29.00;99.90
19908;DHT22;10116;53.112;7.356;2022-07-04T00:38:45;29.00;99.90
19908;DHT22;10116;53.112;7.356;2022-07-04T00:41:10;28.90;99.90
19908;DHT22;10116;53.112;7.356;2022-07-04T00:43:36;29.00;99.90
19908;DHT22;10116;53.112;7.356;2022-07-04T00:46:05;28.90;99.90
19908;DHT22;10116;53.112;7.356;2022-07-04T00:48:33;29.00;99.90
19908;DHT22;10116;53.112;7.356;2022-07-04T00:50:59;29.00;99.90
19908;DHT22;10116;53.112;7.356;2022-07-04T00:53:25;28.90;99.90
19908;DHT22;10116;53.112;7.356;2022-07-04T00:55:51;28.90;99.90
19908;DHT22;10116;53.112;7.356;2022-07-04T00:58:22;29.00;99.90
19908;DHT22;10116;53.112;7.356;2022-07-04T01:00:48;29.00;99.90
19908;DHT22;10116;53.112;7.356;2022-07-04T01:03:14;29.00;99.90
19908;DHT22;10116;53.112;7.356;2022-07-04T01:05:40;28.90;99.90
19908;DHT22;10116;53.112;7.356;2022-07-04T01:08:07;28.90;99.90
19908;DHT22;10116;53.112;7.356;2022-07-04T01:10:33;28.90;99.90
19908;DHT22;10116;53.112;7.356;2022-07-04T01:12:59;28.90;99.90
19908;DHT22;10116;53.112;7.356;2022-07-04T01:15:24;28.90;99.90
19908;DHT22;10116;53.112;7.356;2022-07-04T01:17:50;28.90;99.90
19908;DHT22;10116;53.112;7.356;2022-07-04T01:20:16;28.90;99.90
19908;DHT22;10116;53.112;7.356;2022-07-04T01:22:42;28.80;99.90
19908;DHT22;10116;53.112;7.356;2022-07-04T01:25:10;28.80;99.90
19908;DHT22;10116;53.112;7.356;2022-07-04T01:27:36;28.80;99.90
19908;DHT22;10116;53.112;7.356;2022-07-04T01:30:01;28.80;99.90
19908;DHT22;10116;53.112;7.356;2022-07-04T01:32:27;28.80;99.90
19908;DHT22;10116;53.112;7.356;2022-07-04T01:34:52;28.80;99.90
19908;DHT22;10116;53.112;7.356;2022-07-04T01:37:18;28.80;99.90
19908;DHT22;10116;53.112;7.356;2022-07-04T01:39:44;28.70;99.90
19908;DHT22;10116;53.112;7.356;2022-07-04T01:42:09;28.70;99.90
19908;DHT22;10116;53.112;7.356;2022-07-04T01:44:35;28.70;99.90
19908;DHT22;10116;53.112;7.356;2022-07-04T01:47:01;28.70;99.90
19908;DHT22;10116;53.112;7.356;2022-07-04T01:49:27;28.80;99.90
19908;DHT22;10116;53.112;7.356;2022-07-04T01:51:53;28.80;99.90
19908;DHT22;10116;53.112;7.356;2022-07-04T01:54:19;28.70;99.90
19908;DHT22;10116;53.112;7.356;2022-07-04T01:56:45;28.70;99.90
19908;DHT22;10116;53.112;7.356;2022-07-04T01:59:11;28.70;99.90
19908;DHT22;10116;53.112;7.356;2022-07-04T02:01:37;28.80;99.90
19908;DHT22;10116;53.112;7.356;2022-07-04T02:04:03;28.70;99.90
19908;DHT22;10116;53.112;7.356;2022-07-04T02:06:30;28.70;99.90
19908;DHT22;10116;53.112;7.356;2022-07-04T02:08:56;28.70;99.90
19908;DHT22;10116;53.112;7.356;2022-07-04T02:11:41;28.70;99.90
19908;DHT22;10116;53.112;7.356;2022-07-04T02:14:25;28.80;99.90
19908;DHT22;10116;53.112;7.356;2022-07-04T02:16:51;28.70;99.90
19908;DHT22;10116;53.112;7.356;2022-07-04T02:19:16;28.70;99.90
19908;DHT22;10116;53.112;7.356;2022-07-04T02:21:43;28.70;99.90
19908;DHT22;10116;53.112;7.356;2022-07-04T02:24:08;28.60;99.90
19908;DHT22;10116;53.112;7.356;2022-07-04T02:26:34;28.70;99.90
19908;DHT22;10116;53.112;7.356;2022-07-04T02:28:59;28.70;99.90
19908;DHT22;10116;53.112;7.356;2022-07-04T02:31:26;28.70;99.90
19908;DHT22;10116;53.112;7.356;2022-07-04T02:33:51;28.70;99.90
19908;DHT22;10116;53.112;7.356;2022-07-04T02:36:17;28.60;99.90
19908;DHT22;10116;53.112;7.356;2022-07-04T02:38:42;28.60;99.90
19908;DHT22;10116;53.112;7.356;2022-07-04T02:41:08;28.60;99.90
19908;DHT22;10116;53.112;7.356;2022-07-04T02:43:33;28.60;99.90
19908;DHT22;10116;53.112;7.356;2022-07-04T02:45:59;28.60;99.90
19908;DHT22;10116;53.112;7.356;2022-07-04T02:48:25;28.60;99.90
19908;DHT22;10116;53.112;7.356;2022-07-04T02:50:50;28.60;99.90
19908;DHT22;10116;53.112;7.356;2022-07-04T02:53:16;28.60;99.90
19908;DHT22;10116;53.112;7.356;2022-07-04T02:55:41;28.60;99.90
19908;DHT22;10116;53.112;7.356;2022-07-04T02:58:07;28.60;99.90
19908;DHT22;10116;53.112;7.356;2022-07-04T03:00:32;28.60;99.90
19908;DHT22;10116;53.112;7.356;2022-07-04T03:02:58;28.60;99.90
19908;DHT22;10116;53.112;7.356;2022-07-04T03:05:24;28.60;99.90
19908;DHT22;10116;53.112;7.356;2022-07-04T03:07:49;28.60;99.90
19908;DHT22;10116;53.112;7.356;2022-07-04T03:10:15;28.50;99.90
19908;DHT22;10116;53.112;7.356;2022-07-04T03:12:40;28.50;99.90
19908;DHT22;10116;53.112;7.356;2022-07-04T03:15:06;28.50;99.90
19908;DHT22;10116;53.112;7.356;2022-07-04T03:17:32;28.50;99.90
19908;DHT22;10116;53.112;7.356;2022-07-04T03:19:58;28.50;99.90
19908;DHT22;10116;53.112;7.356;2022-07-04T03:22:23;28.50;99.90
19908;DHT22;10116;53.112;7.356;2022-07-04T03:24:49;28.50;99.90
19908;DHT22;10116;53.112;7.356;2022-07-04T03:27:15;28.40;99.90
19908;DHT22;10116;53.112;7.356;2022-07-04T03:29:41;28.40;99.90
19908;DHT22;10116;53.112;7.356;2022-07-04T03:32:06;28.50;99.90
19908;DHT22;10116;53.112;7.356;2022-07-04T03:34:32;28.50;99.90
19908;DHT22;10116;53.112;7.356;2022-07-04T03:36:58;28.60;99.90
19908;DHT22;10116;53.112;7.356;2022-07-04T03:39:23;28.60;99.90
19908;DHT22;10116;53.112;7.356;2022-07-04T03:41:49;28.60;99.90
19908;DHT22;10116;53.112;7.356;2022-07-04T03:44:15;28.70;99.90
19908;DHT22;10116;53.112;7.356;2022-07-04T03:46:40;28.70;99.90
19908;DHT22;10116;53.112;7.356;2022-07-04T03:49:06;28.70;99.90
19908;DHT22;10116;53.112;7.356;2022-07-04T03:51:32;28.70;99.90
19908;DHT22;10116;53.112;7.356;2022-07-04T03:53:57;28.70;99.90
19908;DHT22;10116;53.112;7.356;2022-07-04T03:56:23;28.70;99.90
19908;DHT22;10116;53.112;7.356;2022-07-04T03:58:49;28.70;99.90
19908;DHT22;10116;53.112;7.356;2022-07-04T04:01:18;28.70;99.90
19908;DHT22;10116;53.112;7.356;2022-07-04T04:03:44;28.70;99.90
19908;DHT22;10116;53.112;7.356;2022-07-04T04:06:29;28.70;99.90
19908;DHT22;10116;53.112;7.356;2022-07-04T04:08:56;28.70;99.90
19908;DHT22;10116;53.112;7.356;2022-07-04T04:11:22;28.70;99.90
19908;DHT22;10116;53.112;7.356;2022-07-04T04:13:48;28.70;99.90
19908;DHT22;10116;53.112;7.356;2022-07-04T04:16:13;28.70;99.90
19908;DHT22;10116;53.112;7.356;2022-07-04T04:18:39;28.70;99.90
19908;DHT22;10116;53.112;7.356;2022-07-04T04:21:05;28.80;99.90
19908;DHT22;10116;53.112;7.356;2022-07-04T04:23:30;28.80;99.90
19908;DHT22;10116;53.112;7.356;2022-07-04T04:25:56;28.80;99.90
19908;DHT22;10116;53.112;7.356;2022-07-04T04:28:22;28.80;99.90
19908;DHT22;10116;53.112;7.356;2022-07-04T04:30:49;28.80;99.90
19908;DHT22;10116;53.112;7.356;2022-07-04T04:33:15;28.90;99.90
19908;DHT22;10116;53.112;7.356;2022-07-04T04:35:40;28.90;99.90
19908;DHT22;10116;53.112;7.356;2022-07-04T04:38:06;28.90;99.90
19908;DHT22;10116;53.112;7.356;2022-07-04T04:40:32;29.00;99.90
19908;DHT22;10116;53.112;7.356;2022-07-04T04:42:57;29.00;99.90
19908;DHT22;10116;53.112;7.356;2022-07-04T04:45:23;29.00;99.90
19908;DHT22;10116;53.112;7.356;2022-07-04T04:47:49;29.10;99.90
19908;DHT22;10116;53.112;7.356;2022-07-04T04:50:14;29.10;99.90
19908;DHT22;10116;53.112;7.356;2022-07-04T04:52:43;29.10;99.90
19908;DHT22;10116;53.112;7.356;2022-07-04T04:55:09;29.10;99.90
19908;DHT22;10116;53.112;7.356;2022-07-04T04:57:34;29.20;99.90
19908;DHT22;10116;53.112;7.356;2022-07-04T05:00:00;29.20;99.90
19908;DHT22;10116;53.112;7.356;2022-07-04T05:02:26;29.20;99.90
19908;DHT22;10116;53.112;7.356;2022-07-04T05:04:53;29.20;99.90
19908;DHT22;10116;53.112;7.356;2022-07-04T05:07:19;29.30;99.90
19908;DHT22;10116;53.112;7.356;2022-07-04T05:09:45;29.40;99.90
19908;DHT22;10116;53.112;7.356;2022-07-04T05:12:10;29.50;99.90
19908;DHT22;10116;53.112;7.356;2022-07-04T05:14:36;29.60;99.90
19908;DHT22;10116;53.112;7.356;2022-07-04T05:17:02;29.70;99.90
19908;DHT22;10116;53.112;7.356;2022-07-04T05:19:28;29.70;99.90
19908;DHT22;10116;53.112;7.356;2022-07-04T05:21:54;29.80;99.90
19908;DHT22;10116;53.112;7.356;2022-07-04T05:24:20;29.80;99.90
19908;DHT22;10116;53.112;7.356;2022-07-04T05:26:46;29.90;99.90
19908;DHT22;10116;53.112;7.356;2022-07-04T05:29:11;30.00;99.90
19908;DHT22;10116;53.112;7.356;2022-07-04T05:31:38;30.00;99.90
19908;DHT22;10116;53.112;7.356;2022-07-04T05:34:04;30.00;99.90
19908;DHT22;10116;53.112;7.356;2022-07-04T05:36:30;30.00;99.90
19908;DHT22;10116;53.112;7.356;2022-07-04T05:38:57;30.00;99.90
19908;DHT22;10116;53.112;7.356;2022-07-04T05:41:23;30.00;99.90
19908;DHT22;10116;53.112;7.356;2022-07-04T05:43:48;30.00;99.90
19908;DHT22;10116;53.112;7.356;2022-07-04T05:46:14;30.10;99.90
19908;DHT22;10116;53.112;7.356;2022-07-04T05:48:40;30.00;99.90
19908;DHT22;10116;53.112;7.356;2022-07-04T05:51:05;30.00;99.90
19908;DHT22;10116;53.112;7.356;2022-07-04T05:53:31;30.00;99.90
19908;DHT22;10116;53.112;7.356;2022-07-04T05:55:57;30.00;99.90
19908;DHT22;10116;53.112;7.356;2022-07-04T05:58:23;30.00;99.90
19908;DHT22;10116;53.112;7.356;2022-07-04T06:00:49;30.00;99.90
19908;DHT22;10116;53.112;7.356;2022-07-04T06:03:14;30.00;99.90
19908;DHT22;10116;53.112;7.356;2022-07-04T06:05:40;30.00;99.90
19908;DHT22;10116;53.112;7.356;2022-07-04T06:08:05;30.00;99.90
19908;DHT22;10116;53.112;7.356;2022-07-04T06:10:31;29.90;99.90
19908;DHT22;10116;53.112;7.356;2022-07-04T06:12:56;29.90;99.90
19908;DHT22;10116;53.112;7.356;2022-07-04T06:15:22;29.90;99.90
19908;DHT22;10116;53.112;7.356;2022-07-04T06:17:48;29.90;99.90
19908;DHT22;10116;53.112;7.356;2022-07-04T06:20:13;29.90;99.90
19908;DHT22;10116;53.112;7.356;2022-07-04T06:22:47;29.90;99.90
19908;DHT22;10116;53.112;7.356;2022-07-04T06:25:15;29.90;99.90
19908;DHT22;10116;53.112;7.356;2022-07-04T06:27:41;29.90;99.90
19908;DHT22;10116;53.112;7.356;2022-07-04T06:30:08;29.80;99.90
19908;DHT22;10116;53.112;7.356;2022-07-04T06:32:52;29.80;99.90
19908;DHT22;10116;53.112;7.356;2022-07-04T06:35:20;29.80;99.90
19908;DHT22;10116;53.112;7.356;2022-07-04T06:38:05;29.80;99.90
19908;DHT22;10116;53.112;7.356;2022-07-04T06:40:31;29.80;99.90
19908;DHT22;10116;53.112;7.356;2022-07-04T06:42:56;29.80;99.90
19908;DHT22;10116;53.112;7.356;2022-07-04T06:45:22;29.70;99.90
19908;DHT22;10116;53.112;7.356;2022-07-04T06:47:48;29.70;99.90
19908;DHT22;10116;53.112;7.356;2022-07-04T06:50:13;29.80;99.90
19908;DHT22;10116;53.112;7.356;2022-07-04T06:52:39;29.80;99.90
19908;DHT22;10116;53.112;7.356;2022-07-04T06:55:06;29.80;99.90
19908;DHT22;10116;53.112;7.356;2022-07-04T06:57:32;29.90;99.90
19908;DHT22;10116;53.112;7.356;2022-07-04T06:59:58;29.90;99.90
19908;DHT22;10116;53.112;7.356;2022-07-04T07:02:24;29.90;99.90
19908;DHT22;10116;53.112;7.356;2022-07-04T07:04:49;29.90;99.90
19908;DHT22;10116;53.112;7.356;2022-07-04T07:07:15;29.90;99.90
19908;DHT22;10116;53.112;7.356;2022-07-04T07:09:40;29.90;99.90
19908;DHT22;10116;53.112;7.356;2022-07-04T07:12:06;29.90;99.90
19908;DHT22;10116;53.112;7.356;2022-07-04T07:14:32;29.90;99.90
19908;DHT22;10116;53.112;7.356;2022-07-04T07:16:58;29.90;99.90
19908;DHT22;10116;53.112;7.356;2022-07-04T07:19:24;29.90;99.90
19908;DHT22;10116;53.112;7.356;2022-07-04T07:21:50;29.80;99.90
19908;DHT22;10116;53.112;7.356;2022-07-04T07:24:16;29.80;99.90
19908;DHT22;10116;53.112;7.356;2022-07-04T07:26:41;29.80;99.90
19908;DHT22;10116;53.112;7.356;2022-07-04T07:29:07;29.80;99.90
19908;DHT22;10116;53.112;7.356;2022-07-04T07:31:32;29.80;99.90
19908;DHT22;10116;53.112;7.356;2022-07-04T07:33:58;29.80;99.90
19908;DHT22;10116;53.112;7.356;2022-07-04T07:36:23;29.80;99.90
19908;DHT22;10116;53.112;7.356;2022-07-04T07:38:49;29.70;99.90
19908;DHT22;10116;53.112;7.356;2022-07-04T07:41:15;29.80;99.90
19908;DHT22;10116;53.112;7.356;2022-07-04T07:43:40;29.70;99.90
19908;DHT22;10116;53.112;7.356;2022-07-04T07:46:07;29.70;99.90
19908;DHT22;10116;53.112;7.356;2022-07-04T07:48:33;29.70;99.90
19908;DHT22;10116;53.112;7.356;2022-07-04T07:50:59;29.70;99.90
19908;DHT22;10116;53.112;7.356;2022-07-04T07:53:25;29.70;99.90
19908;DHT22;10116;53.112;7.356;2022-07-04T07:55:51;29.70;99.90
19908;DHT22;10116;53.112;7.356;2022-07-04T07:58:17;29.70;99.90
19908;DHT22;10116;53.112;7.356;2022-07-04T08:00:42;29.70;99.90
19908;DHT22;10116;53.112;7.356;2022-07-04T08:03:08;29.70;99.90
19908;DHT22;10116;53.112;7.356;2022-07-04T08:05:52;29.70;99.90
19908;DHT22;10116;53.112;7.356;2022-07-04T08:08:18;29.70;99.90
19908;DHT22;10116;53.112;7.356;2022-07-04T08:10:44;29.70;99.90
19908;DHT22;10116;53.112;7.356;2022-07-04T08:13:09;29.60;99.90
19908;DHT22;10116;53.112;7.356;2022-07-04T08:15:35;29.60;99.90
19908;DHT22;10116;53.112;7.356;2022-07-04T08:18:01;29.60;99.90
19908;DHT22;10116;53.112;7.356;2022-07-04T08:20:27;29.60;99.90
19908;DHT22;10116;53.112;7.356;2022-07-04T08:22:52;29.60;99.90
19908;DHT22;10116;53.112;7.356;2022-07-04T08:25:18;29.50;99.90
19908;DHT22;10116;53.112;7.356;2022-07-04T08:27:44;29.50;99.90
19908;DHT22;10116;53.112;7.356;2022-07-04T08:30:10;29.50;99.90
19908;DHT22;10116;53.112;7.356;2022-07-04T08:32:35;29.50;99.90
19908;DHT22;10116;53.112;7.356;2022-07-04T08:35:03;29.50;99.90
19908;DHT22;10116;53.112;7.356;2022-07-04T08:37:28;29.50;99.90
19908;DHT22;10116;53.112;7.356;2022-07-04T08:39:54;29.40;99.90
19908;DHT22;10116;53.112;7.356;2022-07-04T08:42:21;29.40;99.90
19908;DHT22;10116;53.112;7.356;2022-07-04T08:44:53;29.40;99.90
19908;DHT22;10116;53.112;7.356;2022-07-04T08:47:24;29.40;99.90
19908;DHT22;10116;53.112;7.356;2022-07-04T08:52:37;29.30;99.90
19908;DHT22;10116;53.112;7.356;2022-07-04T08:55:04;29.40;99.90
19908;DHT22;10116;53.112;7.356;2022-07-04T08:57:49;29.30;99.90
19908;DHT22;10116;53.112;7.356;2022-07-04T09:00:35;29.30;99.90
19908;DHT22;10116;53.112;7.356;2022-07-04T09:03:03;29.30;99.90
19908;DHT22;10116;53.112;7.356;2022-07-04T09:05:30;29.40;99.90
19908;DHT22;10116;53.112;7.356;2022-07-04T09:07:57;29.30;99.90
19908;DHT22;10116;53.112;7.356;2022-07-04T09:10:23;29.30;99.90
19908;DHT22;10116;53.112;7.356;2022-07-04T09:12:49;29.30;99.90
19908;DHT22;10116;53.112;7.356;2022-07-04T09:15:16;29.30;99.90
19908;DHT22;10116;53.112;7.356;2022-07-04T09:17:42;29.30;99.90
19908;DHT22;10116;53.112;7.356;2022-07-04T09:20:20;29.30;99.90
19908;DHT22;10116;53.112;7.356;2022-07-04T09:22:48;29.30;99.90
19908;DHT22;10116;53.112;7.356;2022-07-04T09:25:15;29.30;99.90
19908;DHT22;10116;53.112;7.356;2022-07-04T09:27:49;29.30;99.90
19908;DHT22;10116;53.112;7.356;2022-07-04T09:30:17;29.30;99.90
19908;DHT22;10116;53.112;7.356;2022-07-04T09:32:45;29.20;99.90
19908;DHT22;10116;53.112;7.356;2022-07-04T09:37:55;29.30;99.90
19908;DHT22;10116;53.112;7.356;2022-07-04T09:40:36;29.20;99.90
19908;DHT22;10116;53.112;7.356;2022-07-04T09:43:22;29.20;99.90
19908;DHT22;10116;53.112;7.356;2022-07-04T09:45:57;29.20;99.90
19908;DHT22;10116;53.112;7.356;2022-07-04T09:48:23;29.20;99.90
19908;DHT22;10116;53.112;7.356;2022-07-04T09:50:49;29.20;99.90
19908;DHT22;10116;53.112;7.356;2022-07-04T09:53:14;29.20;99.90
19908;DHT22;10116;53.112;7.356;2022-07-04T09:55:40;29.10;99.90
19908;DHT22;10116;53.112;7.356;2022-07-04T09:58:11;29.20;99.90
19908;DHT22;10116;53.112;7.356;2022-07-04T10:00:45;29.10;99.90
19908;DHT22;10116;53.112;7.356;2022-07-04T10:03:27;29.20;99.90
19908;DHT22;10116;53.112;7.356;2022-07-04T10:06:10;29.20;99.90
19908;DHT22;10116;53.112;7.356;2022-07-04T10:08:37;29.30;99.90
19908;DHT22;10116;53.112;7.356;2022-07-04T10:11:05;29.40;99.90
19908;DHT22;10116;53.112;7.356;2022-07-04T10:13:31;29.40;99.90
19908;DHT22;10116;53.112;7.356;2022-07-04T10:15:57;29.50;99.90
19908;DHT22;10116;53.112;7.356;2022-07-04T10:18:24;29.60;99.90
19908;DHT22;10116;53.112;7.356;2022-07-04T10:20:51;29.50;99.90
19908;DHT22;10116;53.112;7.356;2022-07-04T10:23:18;29.60;99.90
19908;DHT22;10116;53.112;7.356;2022-07-04T10:25:51;29.60;99.90
19908;DHT22;10116;53.112;7.356;2022-07-04T10:28:17;29.60;99.90
19908;DHT22;10116;53.112;7.356;2022-07-04T10:30:45;29.60;99.90
19908;DHT22;10116;53.112;7.356;2022-07-04T10:33:12;29.60;99.90
19908;DHT22;10116;53.112;7.356;2022-07-04T10:38:12;29.60;99.90
19908;DHT22;10116;53.112;7.356;2022-07-04T10:41:07;29.60;99.90
19908;DHT22;10116;53.112;7.356;2022-07-04T10:48:33;29.60;99.90
19908;DHT22;10116;53.112;7.356;2022-07-04T10:51:04;29.70;99.90
19908;DHT22;10116;53.112;7.356;2022-07-04T10:53:31;29.70;99.90
19908;DHT22;10116;53.112;7.356;2022-07-04T10:58:42;29.70;99.90
19908;DHT22;10116;53.112;7.356;2022-07-04T11:03:48;29.70;99.90
19908;DHT22;10116;53.112;7.356;2022-07-04T11:09:20;29.70;99.90
19908;DHT22;10116;53.112;7.356;2022-07-04T11:12:02;29.80;99.90
19908;DHT22;10116;53.112;7.356;2022-07-04T11:14:41;29.80;99.90
19908;DHT22;10116;53.112;7.356;2022-07-04T11:19:34;29.80;99.90
19908;DHT22;10116;53.112;7.356;2022-07-04T11:22:00;29.80;99.90
19908;DHT22;10116;53.112;7.356;2022-07-04T11:24:27;29.80;99.90
19908;DHT22;10116;53.112;7.356;2022-07-04T11:26:53;29.80;99.90
19908;DHT22;10116;53.112;7.356;2022-07-04T11:29:18;29.80;99.90
19908;DHT22;10116;53.112;7.356;2022-07-04T11:31:46;29.80;99.90
19908;DHT22;10116;53.112;7.356;2022-07-04T11:34:13;29.80;99.90
19908;DHT22;10116;53.112;7.356;2022-07-04T11:36:42;29.80;99.90
19908;DHT22;10116;53.112;7.356;2022-07-04T11:39:11;29.80;99.90
19908;DHT22;10116;53.112;7.356;2022-07-04T11:41:42;29.80;99.90
19908;DHT22;10116;53.112;7.356;2022-07-04T11:44:30;29.90;99.90
19908;DHT22;10116;53.112;7.356;2022-07-04T11:47:17;29.80;99.90
19908;DHT22;10116;53.112;7.356;2022-07-04T11:49:48;29.80;99.90
19908;DHT22;10116;53.112;7.356;2022-07-04T11:52:14;29.80;99.90
19908;DHT22;10116;53.112;7.356;2022-07-04T11:54:45;29.80;99.90
19908;DHT22;10116;53.112;7.356;2022-07-04T11:59:54;30.00;99.90
19908;DHT22;10116;53.112;7.356;2022-07-04T12:02:20;30.00;99.90
19908;DHT22;10116;53.112;7.356;2022-07-04T12:04:46;30.10;99.90
19908;DHT22;10116;53.112;7.356;2022-07-04T12:07:16;30.10;99.90
19908;DHT22;10116;53.112;7.356;2022-07-04T12:09:44;30.10;99.90
19908;DHT22;10116;53.112;7.356;2022-07-04T12:12:11;30.10;99.90
19908;DHT22;10116;53.112;7.356;2022-07-04T12:14:37;30.20;99.90
19908;DHT22;10116;53.112;7.356;2022-07-04T12:17:17;30.20;99.90
19908;DHT22;10116;53.112;7.356;2022-07-04T12:20:00;30.10;99.90
19908;DHT22;10116;53.112;7.356;2022-07-04T12:22:30;30.20;99.90
19908;DHT22;10116;53.112;7.356;2022-07-04T12:24:58;30.10;99.90
19908;DHT22;10116;53.112;7.356;2022-07-04T12:27:25;30.10;99.90
19908;DHT22;10116;53.112;7.356;2022-07-04T12:29:52;30.20;99.90
19908;DHT22;10116;53.112;7.356;2022-07-04T12:32:18;30.20;99.90
19908;DHT22;10116;53.112;7.356;2022-07-04T12:34:45;30.20;99.90
19908;DHT22;10116;53.112;7.356;2022-07-04T12:37:12;30.20;99.90
19908;DHT22;10116;53.112;7.356;2022-07-04T12:39:40;30.10;99.90
19908;DHT22;10116;53.112;7.356;2022-07-04T12:42:12;30.10;99.90
19908;DHT22;10116;53.112;7.356;2022-07-04T12:44:39;30.10;99.90
19908;DHT22;10116;53.112;7.356;2022-07-04T12:47:06;30.10;99.90
19908;DHT22;10116;53.112;7.356;2022-07-04T12:49:33;30.20;99.90
19908;DHT22;10116;53.112;7.356;2022-07-04T12:52:07;30.20;99.90
19908;DHT22;10116;53.112;7.356;2022-07-04T12:54:33;30.20;99.90
19908;DHT22;10116;53.112;7.356;2022-07-04T12:59:36;30.20;99.90
19908;DHT22;10116;53.112;7.356;2022-07-04T13:02:02;30.20;99.90
19908;DHT22;10116;53.112;7.356;2022-07-04T13:04:28;30.10;99.90
19908;DHT22;10116;53.112;7.356;2022-07-04T13:06:54;30.20;99.90
19908;DHT22;10116;53.112;7.356;2022-07-04T13:09:19;30.20;99.90
19908;DHT22;10116;53.112;7.356;2022-07-04T13:11:45;30.20;99.90
19908;DHT22;10116;53.112;7.356;2022-07-04T13:14:29;30.20;99.90
19908;DHT22;10116;53.112;7.356;2022-07-04T13:16:55;30.20;99.90
19908;DHT22;10116;53.112;7.356;2022-07-04T13:19:20;30.10;99.90
19908;DHT22;10116;53.112;7.356;2022-07-04T13:21:46;30.10;99.90
19908;DHT22;10116;53.112;7.356;2022-07-04T13:24:13;30.10;99.90
19908;DHT22;10116;53.112;7.356;2022-07-04T13:26:39;30.10;99.90
19908;DHT22;10116;53.112;7.356;2022-07-04T13:29:05;30.10;99.90
19908;DHT22;10116;53.112;7.356;2022-07-04T13:31:31;30.20;99.90
19908;DHT22;10116;53.112;7.356;2022-07-04T13:33:57;30.20;99.90
19908;DHT22;10116;53.112;7.356;2022-07-04T13:36:22;30.20;99.90
19908;DHT22;10116;53.112;7.356;2022-07-04T13:38:48;30.10;99.90
19908;DHT22;10116;53.112;7.356;2022-07-04T13:41:14;30.20;99.90
19908;DHT22;10116;53.112;7.356;2022-07-04T13:43:40;30.20;99.90
19908;DHT22;10116;53.112;7.356;2022-07-04T13:46:06;30.20;99.90
19908;DHT22;10116;53.112;7.356;2022-07-04T13:48:32;30.20;99.90
19908;DHT22;10116;53.112;7.356;2022-07-04T13:50:58;30.20;99.90
19908;DHT22;10116;53.112;7.356;2022-07-04T13:53:23;30.10;99.90
19908;DHT22;10116;53.112;7.356;2022-07-04T13:55:49;30.20;99.90
19908;DHT22;10116;53.112;7.356;2022-07-04T13:58:15;30.20;99.90
19908;DHT22;10116;53.112;7.356;2022-07-04T14:00:40;30.20;99.90
19908;DHT22;10116;53.112;7.356;2022-07-04T14:03:11;30.20;99.90
19908;DHT22;10116;53.112;7.356;2022-07-04T14:05:36;30.30;99.90
19908;DHT22;10116;53.112;7.356;2022-07-04T14:08:02;30.30;99.90
19908;DHT22;10116;53.112;7.356;2022-07-04T14:10:28;30.30;99.90
19908;DHT22;10116;53.112;7.356;2022-07-04T14:12:53;30.40;99.90
19908;DHT22;10116;53.112;7.356;2022-07-04T14:15:19;30.40;99.90
19908;DHT22;10116;53.112;7.356;2022-07-04T14:17:45;30.40;99.90
19908;DHT22;10116;53.112;7.356;2022-07-04T14:20:11;30.40;99.90
19908;DHT22;10116;53.112;7.356;2022-07-04T14:22:37;30.40;99.90
19908;DHT22;10116;53.112;7.356;2022-07-04T14:25:03;30.40;99.90
19908;DHT22;10116;53.112;7.356;2022-07-04T14:27:29;30.40;99.90
19908;DHT22;10116;53.112;7.356;2022-07-04T14:29:55;30.40;99.90
19908;DHT22;10116;53.112;7.356;2022-07-04T14:32:20;30.40;99.90
19908;DHT22;10116;53.112;7.356;2022-07-04T14:34:46;30.40;99.90
19908;DHT22;10116;53.112;7.356;2022-07-04T14:37:12;30.40;99.90
19908;DHT22;10116;53.112;7.356;2022-07-04T14:39:38;30.40;99.90
19908;DHT22;10116;53.112;7.356;2022-07-04T14:42:03;30.30;99.90
19908;DHT22;10116;53.112;7.356;2022-07-04T14:44:29;30.30;99.90
19908;DHT22;10116;53.112;7.356;2022-07-04T14:46:55;30.30;99.90
19908;DHT22;10116;53.112;7.356;2022-07-04T14:49:21;30.30;99.90
19908;DHT22;10116;53.112;7.356;2022-07-04T14:51:46;30.30;99.90
19908;DHT22;10116;53.112;7.356;2022-07-04T14:54:12;30.30;99.90
19908;DHT22;10116;53.112;7.356;2022-07-04T14:56:38;30.30;99.90
19908;DHT22;10116;53.112;7.356;2022-07-04T14:59:04;30.30;99.90
19908;DHT22;10116;53.112;7.356;2022-07-04T15:01:30;30.30;99.90
19908;DHT22;10116;53.112;7.356;2022-07-04T15:03:56;30.30;99.90
19908;DHT22;10116;53.112;7.356;2022-07-04T15:06:22;30.30;99.90
19908;DHT22;10116;53.112;7.356;2022-07-04T15:08:48;30.30;99.90
19908;DHT22;10116;53.112;7.356;2022-07-04T15:11:14;30.30;99.90
19908;DHT22;10116;53.112;7.356;2022-07-04T15:13:39;30.30;99.90
19908;DHT22;10116;53.112;7.356;2022-07-04T15:16:05;30.30;99.90
19908;DHT22;10116;53.112;7.356;2022-07-04T15:18:31;30.30;99.90
19908;DHT22;10116;53.112;7.356;2022-07-04T15:20:57;30.30;99.90
19908;DHT22;10116;53.112;7.356;2022-07-04T15:23:41;30.30;99.90
19908;DHT22;10116;53.112;7.356;2022-07-04T15:26:25;30.30;99.90
19908;DHT22;10116;53.112;7.356;2022-07-04T15:28:51;30.20;99.90
19908;DHT22;10116;53.112;7.356;2022-07-04T15:31:17;30.20;99.90
19908;DHT22;10116;53.112;7.356;2022-07-04T15:33:42;30.20;99.90
19908;DHT22;10116;53.112;7.356;2022-07-04T15:36:08;30.20;99.90
19908;DHT22;10116;53.112;7.356;2022-07-04T15:38:34;30.20;99.90
19908;DHT22;10116;53.112;7.356;2022-07-04T15:41:00;30.20;99.90
19908;DHT22;10116;53.112;7.356;2022-07-04T15:43:27;30.20;99.90
19908;DHT22;10116;53.112;7.356;2022-07-04T15:45:52;30.20;99.90
19908;DHT22;10116;53.112;7.356;2022-07-04T15:48:18;30.20;99.90
19908;DHT22;10116;53.112;7.356;2022-07-04T15:50:44;30.30;99.90
19908;DHT22;10116;53.112;7.356;2022-07-04T15:53:10;30.30;99.90
19908;DHT22;10116;53.112;7.356;2022-07-04T15:55:36;30.30;99.90
19908;DHT22;10116;53.112;7.356;2022-07-04T15:58:01;30.30;99.90
19908;DHT22;10116;53.112;7.356;2022-07-04T16:00:27;30.30;99.90